Time;durP1;ratioP1;P1;durP2;ratioP2;P2;SDS_P1;SDS_P2;PMS_P1;PMS_P2;Temp;Humidity;BMP_temperature;BMP_pressure;BME280_temperature;BME280_humidity;BME280_pressure;Samples;Min_cycle;Max_cycle;Signal;HPM_P1;HPM_P2
2022/08/20 00:00:14;;;;;;;;;;;;;;;21.98;58.43;95528.91;10316642;28;2041;-48
2022/08/20 00:05:19;;;;;;;;;;;;;;;22.00;58.10;95546.03;10323144;28;2340;-50
2022/08/20 00:10:19;;;;;;;;;;;;;;;21.98;58.71;95532.34;10322857;28;2051;-52
2022/08/20 00:15:21;;;;;;;;;;;;;;;21.96;58.47;95544.25;10322332;28;2105;-51
2022/08/20 00:20:22;;;;;;;;;;;;;;;21.98;58.61;95542.88;10327929;28;2148;-52
2022/08/20 00:25:23;;;;;;;;;;;;;;;22.01;58.68;95538.91;10329149;28;2044;-51
2022/08/20 00:30:23;;;;;;;;;;;;;;;22.01;58.66;95537.03;10328594;28;2061;-50
2022/08/20 00:35:25;;;;;;;;;;;;;;;21.95;58.63;95546.09;10329668;28;2049;-55
2022/08/20 00:40:37;;;;;;;;;;;;;;;21.94;58.88;95551.66;10327436;28;2052;-53
2022/08/20 00:45:37;;;;;;;;;;;;;;;21.91;58.52;95553.00;10329645;28;1929;-53
2022/08/20 00:50:46;;;;;;;;;;;;;;;21.94;58.66;95560.38;10327010;28;2085;-51
2022/08/20 00:55:49;;;;;;;;;;;;;;;21.90;58.83;95554.09;10327982;28;2042;-54
2022/08/20 01:00:50;;;;;;;;;;;;;;;21.90;59.01;95555.94;10325295;28;2065;-52
2022/08/20 01:05:50;;;;;;;;;;;;;;;21.85;59.03;95554.94;10325230;28;2069;-51
2022/08/20 01:10:52;;;;;;;;;;;;;;;21.90;58.97;95562.00;10323241;28;1975;-52
2022/08/20 01:15:53;;;;;;;;;;;;;;;21.87;59.17;95557.28;10324350;28;2065;-53
2022/08/20 01:20:57;;;;;;;;;;;;;;;21.82;59.17;95560.03;10322522;28;2100;-53
2022/08/20 01:26:01;;;;;;;;;;;;;;;21.82;59.09;95563.41;10323283;28;2069;-52
2022/08/20 01:31:02;;;;;;;;;;;;;;;21.88;59.34;95566.78;10319515;28;2013;-51
2022/08/20 01:36:03;;;;;;;;;;;;;;;21.94;59.07;95557.72;10325074;28;1909;-50
2022/08/20 01:41:15;;;;;;;;;;;;;;;21.91;59.14;95557.53;10324857;28;2084;-52
2022/08/20 01:46:16;;;;;;;;;;;;;;;22.01;59.03;95560.00;10323578;28;2130;-52
2022/08/20 01:51:17;;;;;;;;;;;;;;;22.02;58.95;95565.00;10337605;28;2096;-52
2022/08/20 01:56:19;;;;;;;;;;;;;;;21.99;59.04;95560.28;10326866;28;2056;-51
2022/08/20 02:01:19;;;;;;;;;;;;;;;22.02;58.97;95565.00;10327405;28;2076;-53
2022/08/20 02:06:23;;;;;;;;;;;;;;;22.05;58.78;95564.41;10323577;28;2033;-52
2022/08/20 02:11:24;;;;;;;;;;;;;;;22.11;58.80;95571.22;10324321;28;2085;-51
2022/08/20 02:16:28;;;;;;;;;;;;;;;22.07;58.91;95578.09;10328071;28;2142;-53
2022/08/20 02:21:30;;;;;;;;;;;;;;;22.09;58.75;95580.47;10324567;28;2047;-51
2022/08/20 02:26:30;;;;;;;;;;;;;;;22.07;59.11;95579.97;10323479;28;2077;-53
2022/08/20 02:31:30;;;;;;;;;;;;;;;22.10;58.66;95582.81;10326907;28;2037;-51
2022/08/20 02:36:31;;;;;;;;;;;;;;;22.07;59.20;95580.75;10325622;28;2105;-51
2022/08/20 02:41:31;;;;;;;;;;;;;;;21.99;59.29;95578.00;10325421;28;2076;-51
2022/08/20 02:46:31;;;;;;;;;;;;;;;21.95;59.50;95580.41;10325917;28;2136;-53
2022/08/20 02:51:32;;;;;;;;;;;;;;;22.00;59.32;95575.06;10323383;28;2085;-53
2022/08/20 02:56:32;;;;;;;;;;;;;;;21.97;59.29;95591.44;10325084;28;1984;-51
2022/08/20 03:01:32;;;;;;;;;;;;;;;21.88;59.38;95583.38;10318861;28;1839;-52
2022/08/20 03:06:33;;;;;;;;;;;;;;;21.87;59.44;95583.69;10319015;28;2072;-52
2022/08/20 03:11:33;;;;;;;;;;;;;;;21.87;59.56;95586.31;10320070;28;2126;-54
2022/08/20 03:16:34;;;;;;;;;;;;;;;21.93;59.52;95593.09;10319633;28;1949;-51
2022/08/20 03:21:34;;;;;;;;;;;;;;;21.92;59.62;95596.03;10321763;28;2092;-51
2022/08/20 03:26:34;;;;;;;;;;;;;;;21.92;59.74;95588.91;10322497;28;1989;-52
2022/08/20 03:31:35;;;;;;;;;;;;;;;21.90;59.70;95598.97;10322253;28;2060;-51
2022/08/20 03:36:35;;;;;;;;;;;;;;;21.91;59.78;95595.22;10322818;28;2071;-51
2022/08/20 03:41:36;;;;;;;;;;;;;;;21.87;59.80;95599.50;10329312;28;2057;-52
2022/08/20 03:46:37;;;;;;;;;;;;;;;21.84;59.89;95606.13;10328169;28;2036;-52
2022/08/20 03:51:38;;;;;;;;;;;;;;;21.87;59.89;95607.44;10321998;28;2044;-52
2022/08/20 03:56:38;;;;;;;;;;;;;;;21.88;59.72;95616.94;10322626;28;2054;-51
2022/08/20 04:01:38;;;;;;;;;;;;;;;21.88;59.85;95610.84;10322002;28;2072;-52
2022/08/20 04:06:39;;;;;;;;;;;;;;;21.85;59.71;95612.22;10318393;28;1968;-51
2022/08/20 04:11:40;;;;;;;;;;;;;;;21.79;60.16;95613.31;10321689;28;1993;-54
2022/08/20 04:16:40;;;;;;;;;;;;;;;21.76;59.78;95613.91;10323260;28;2018;-48
2022/08/20 04:21:40;;;;;;;;;;;;;;;21.75;59.97;95628.94;10318176;28;2166;-52
2022/08/20 04:26:41;;;;;;;;;;;;;;;21.74;60.01;95632.63;10321931;28;1997;-50
2022/08/20 04:31:41;;;;;;;;;;;;;;;21.79;59.78;95634.44;10330217;28;1971;-50
2022/08/20 04:36:41;;;;;;;;;;;;;;;21.77;60.04;95636.56;10323051;28;1894;-51
2022/08/20 04:41:41;;;;;;;;;;;;;;;21.73;60.02;95646.13;10322594;28;2040;-54
2022/08/20 04:46:42;;;;;;;;;;;;;;;21.68;59.94;95638.25;10317846;28;2386;-50
2022/08/20 04:51:42;;;;;;;;;;;;;;;21.69;60.10;95639.84;10322832;28;2036;-49
2022/08/20 04:56:42;;;;;;;;;;;;;;;21.69;60.01;95640.63;10321016;28;1989;-52
2022/08/20 05:01:43;;;;;;;;;;;;;;;21.64;60.39;95629.31;10320756;28;2040;-54
2022/08/20 05:06:44;;;;;;;;;;;;;;;21.64;60.14;95637.25;10326914;28;2378;-53
2022/08/20 05:11:44;;;;;;;;;;;;;;;21.60;60.43;95647.59;10329315;28;1911;-51
2022/08/20 05:16:45;;;;;;;;;;;;;;;21.65;60.13;95657.28;10333643;28;1990;-52
2022/08/20 05:21:45;;;;;;;;;;;;;;;21.65;60.26;95667.84;10329595;28;2071;-49
2022/08/20 05:26:45;;;;;;;;;;;;;;;21.67;60.28;95661.22;10328286;28;2041;-50
2022/08/20 05:31:46;;;;;;;;;;;;;;;21.70;60.35;95683.63;10329729;28;1969;-51
2022/08/20 05:36:48;;;;;;;;;;;;;;;21.67;60.25;95676.25;10336743;28;2182;-51
2022/08/20 05:41:50;;;;;;;;;;;;;;;21.68;59.96;95683.09;10329451;28;2032;-53
2022/08/20 05:46:50;;;;;;;;;;;;;;;21.71;60.30;95682.53;10327858;28;2092;-54
2022/08/20 05:51:50;;;;;;;;;;;;;;;21.69;60.32;95684.69;10327864;28;2006;-50
2022/08/20 05:56:51;;;;;;;;;;;;;;;21.69;60.35;95695.22;10325218;28;2072;-54
2022/08/20 06:01:51;;;;;;;;;;;;;;;21.70;60.09;95688.91;10319644;28;2032;-52
2022/08/20 06:06:52;;;;;;;;;;;;;;;21.80;59.73;95694.06;10322302;28;2061;-54
2022/08/20 06:11:52;;;;;;;;;;;;;;;21.80;59.99;95688.78;10324449;28;2100;-51
2022/08/20 06:16:52;;;;;;;;;;;;;;;21.79;59.87;95695.91;10325679;28;2026;-51
2022/08/20 06:21:55;;;;;;;;;;;;;;;21.86;59.98;95703.50;10325623;28;1977;-51
2022/08/20 06:26:56;;;;;;;;;;;;;;;21.90;59.98;95707.16;10325923;28;2115;-50
2022/08/20 06:31:56;;;;;;;;;;;;;;;21.92;59.70;95702.38;10326820;28;2075;-54
2022/08/20 06:36:57;;;;;;;;;;;;;;;21.97;59.81;95704.94;10325988;28;2034;-54
2022/08/20 06:41:57;;;;;;;;;;;;;;;21.96;59.52;95707.88;10323556;28;2078;-52
2022/08/20 06:47:02;;;;;;;;;;;;;;;21.99;59.57;95708.09;10323642;28;2140;-54
2022/08/20 06:52:03;;;;;;;;;;;;;;;21.99;59.40;95708.09;10322953;28;2084;-51
2022/08/20 06:57:03;;;;;;;;;;;;;;;21.98;59.55;95714.44;10324584;28;2017;-52
2022/08/20 07:02:04;;;;;;;;;;;;;;;22.04;59.38;95726.50;10323790;28;2127;-53
2022/08/20 07:07:04;;;;;;;;;;;;;;;21.97;59.25;95726.06;10326291;28;1997;-53
2022/08/20 07:12:05;;;;;;;;;;;;;;;21.96;59.53;95737.69;10323147;28;2013;-53
2022/08/20 07:17:05;;;;;;;;;;;;;;;22.02;59.60;95735.78;10322279;28;2085;-51
2022/08/20 07:22:06;;;;;;;;;;;;;;;22.03;59.01;95735.47;10322985;28;2388;-55
2022/08/20 07:27:06;;;;;;;;;;;;;;;22.06;59.07;95740.22;10322406;28;1948;-49
2022/08/20 07:37:25;;;;;;;;;;;;;;;22.15;59.06;95743.00;10322743;28;2057;-52
2022/08/20 07:42:25;;;;;;;;;;;;;;;22.15;58.97;95741.16;10322436;28;1977;-53
2022/08/20 07:47:26;;;;;;;;;;;;;;;22.16;58.95;95744.56;10323457;28;2084;-54
2022/08/20 07:52:26;;;;;;;;;;;;;;;22.15;59.11;95753.56;10322861;28;2030;-52
2022/08/20 07:57:26;;;;;;;;;;;;;;;22.16;59.30;95757.75;10321271;28;2041;-51
2022/08/20 08:02:26;;;;;;;;;;;;;;;22.17;59.35;95752.22;10319887;28;2112;-48
2022/08/20 08:07:27;;;;;;;;;;;;;;;22.18;59.31;95766.19;10322439;28;2041;-48
2022/08/20 08:12:31;;;;;;;;;;;;;;;22.15;59.38;95758.84;10320652;28;2021;-48
2022/08/20 08:17:31;;;;;;;;;;;;;;;22.19;59.48;95751.94;10320397;28;2061;-50
2022/08/20 08:22:32;;;;;;;;;;;;;;;22.20;59.03;95751.66;10321206;28;2081;-51
2022/08/20 08:27:34;;;;;;;;;;;;;;;22.12;59.33;95765.47;10322726;28;2078;-51
2022/08/20 08:32:35;;;;;;;;;;;;;;;22.10;59.27;95766.81;10325794;28;2036;-47
2022/08/20 08:37:36;;;;;;;;;;;;;;;22.05;59.37;95770.28;10322289;28;2081;-49
2022/08/20 08:42:40;;;;;;;;;;;;;;;22.08;59.24;95775.03;10329285;28;2061;-51
2022/08/20 08:47:40;;;;;;;;;;;;;;;22.05;59.45;95786.13;10311284;28;2072;-54
2022/08/20 08:52:40;;;;;;;;;;;;;;;22.06;59.43;95787.72;10329121;28;1915;-53
2022/08/20 08:57:41;;;;;;;;;;;;;;;22.08;59.46;95790.06;10326425;28;2068;-52
2022/08/20 09:02:57;;;;;;;;;;;;;;;22.11;59.16;95795.59;10327160;28;2037;-54
2022/08/20 09:07:58;;;;;;;;;;;;;;;22.14;59.30;95795.03;10328730;28;2045;-50
2022/08/20 09:13:00;;;;;;;;;;;;;;;22.15;59.38;95795.81;10329773;28;2008;-52
2022/08/20 09:18:00;;;;;;;;;;;;;;;22.15;59.44;95787.88;10328853;28;2040;-52
2022/08/20 09:23:00;;;;;;;;;;;;;;;22.18;59.47;95800.50;10327992;28;2154;-52
2022/08/20 09:28:01;;;;;;;;;;;;;;;22.26;60.14;95791.97;10322470;28;2052;-50
2022/08/20 09:33:01;;;;;;;;;;;;;;;22.31;60.14;95798.00;10328670;28;2158;-48
2022/08/20 09:38:01;;;;;;;;;;;;;;;22.34;60.14;95799.28;10324430;28;2247;-49
2022/08/20 09:43:03;;;;;;;;;;;;;;;22.39;60.10;95791.28;10325812;28;2054;-51
2022/08/20 09:48:04;;;;;;;;;;;;;;;22.41;59.64;95787.28;10325862;28;1835;-52
2022/08/20 09:53:05;;;;;;;;;;;;;;;22.46;59.68;95786.44;10323882;28;2064;-50
2022/08/20 09:58:23;;;;;;;;;;;;;;;22.50;59.37;95782.16;10315750;28;2024;-53
2022/08/20 10:03:24;;;;;;;;;;;;;;;22.52;59.60;95786.06;10317336;28;1993;-51
2022/08/20 10:08:24;;;;;;;;;;;;;;;22.51;59.28;95783.72;10323448;28;2140;-53
2022/08/20 10:13:25;;;;;;;;;;;;;;;22.51;59.24;95784.50;10322429;28;2057;-50
2022/08/20 10:18:25;;;;;;;;;;;;;;;22.56;59.09;95783.66;10322250;28;2120;-51
2022/08/20 10:23:25;;;;;;;;;;;;;;;22.62;59.03;95785.19;10326415;28;2017;-53
2022/08/20 10:28:26;;;;;;;;;;;;;;;22.58;59.86;95784.19;10327061;28;2021;-53
2022/08/20 10:33:26;;;;;;;;;;;;;;;22.55;59.62;95785.50;10326893;28;1918;-54
2022/08/20 10:38:26;;;;;;;;;;;;;;;22.53;59.85;95782.38;10321970;28;2125;-53
2022/08/20 10:43:27;;;;;;;;;;;;;;;22.49;60.28;95781.38;10328068;28;1997;-50
2022/08/20 10:48:27;;;;;;;;;;;;;;;22.50;60.46;95787.44;10326133;28;2013;-51
2022/08/20 10:53:28;;;;;;;;;;;;;;;22.54;61.12;95781.31;10328129;28;2037;-53
2022/08/20 10:58:28;;;;;;;;;;;;;;;22.56;61.21;95787.09;10326431;28;2064;-49
2022/08/20 11:03:28;;;;;;;;;;;;;;;22.56;60.80;95781.81;10324674;28;2045;-51
2022/08/20 11:08:29;;;;;;;;;;;;;;;22.62;60.41;95782.56;10325355;28;2076;-50
2022/08/20 11:13:29;;;;;;;;;;;;;;;22.67;60.35;95779.06;10325014;28;1985;-53
2022/08/20 11:18:29;;;;;;;;;;;;;;;22.67;60.57;95771.13;10322370;28;1972;-52
2022/08/20 11:23:29;;;;;;;;;;;;;;;22.67;60.25;95763.22;10324688;28;2029;-54
2022/08/20 11:28:32;;;;;;;;;;;;;;;22.72;59.77;95761.28;10320808;28;1985;-54
2022/08/20 11:33:32;;;;;;;;;;;;;;;22.74;59.76;95760.97;10322745;28;1917;-52
2022/08/20 11:38:34;;;;;;;;;;;;;;;22.76;59.22;95750.91;10322896;28;2069;-47
2022/08/20 11:43:35;;;;;;;;;;;;;;;22.79;59.11;95751.13;10324173;28;2048;-53
2022/08/20 11:48:35;;;;;;;;;;;;;;;22.80;59.53;95752.69;10323098;28;2064;-53
2022/08/20 11:53:35;;;;;;;;;;;;;;;22.80;59.60;95759.81;10323934;28;2064;-48
2022/08/20 11:58:36;;;;;;;;;;;;;;;22.80;59.45;95765.91;10317030;28;2140;-52
2022/08/20 12:03:36;;;;;;;;;;;;;;;22.82;59.47;95762.97;10322880;28;1941;-53
2022/08/20 12:08:37;;;;;;;;;;;;;;;22.81;59.48;95759.56;10319792;28;1899;-51
2022/08/20 12:13:37;;;;;;;;;;;;;;;22.85;59.41;95765.06;10320765;28;2005;-51
2022/08/20 12:18:37;;;;;;;;;;;;;;;22.81;59.40;95764.06;10319645;28;1985;-51
2022/08/20 12:23:38;;;;;;;;;;;;;;;22.80;59.53;95771.19;10321404;28;2230;-53
2022/08/20 12:28:38;;;;;;;;;;;;;;;22.80;59.47;95760.63;10322295;28;2080;-51
2022/08/20 12:33:38;;;;;;;;;;;;;;;22.79;59.26;95761.72;10321324;28;2037;-53
2022/08/20 12:38:39;;;;;;;;;;;;;;;22.79;59.26;95747.69;10319941;28;2021;-53
2022/08/20 12:43:40;;;;;;;;;;;;;;;22.79;59.14;95751.13;10322146;28;2053;-53
2022/08/20 12:48:40;;;;;;;;;;;;;;;22.79;58.89;95742.41;10321635;28;1993;-51
2022/08/20 12:53:41;;;;;;;;;;;;;;;22.75;58.71;95742.19;10322235;28;2063;-51
2022/08/20 12:58:41;;;;;;;;;;;;;;;22.77;58.62;95749.84;10318638;28;2045;-52
2022/08/20 13:03:41;;;;;;;;;;;;;;;22.78;58.54;95748.75;10318835;28;1965;-51
2022/08/20 13:08:42;;;;;;;;;;;;;;;22.77;58.46;95741.91;10320733;28;2026;-53
2022/08/20 13:13:42;;;;;;;;;;;;;;;22.73;58.37;95749.63;10321957;28;2108;-53
2022/08/20 13:18:42;;;;;;;;;;;;;;;22.75;58.55;95746.72;10320071;28;2089;-49
2022/08/20 13:23:43;;;;;;;;;;;;;;;22.73;58.17;95735.63;10321754;28;2052;-52
2022/08/20 13:28:43;;;;;;;;;;;;;;;22.65;58.44;95740.50;10327084;28;2114;-52
2022/08/20 13:33:43;;;;;;;;;;;;;;;22.65;58.54;95732.56;10327390;28;2336;-54
2022/08/20 13:38:43;;;;;;;;;;;;;;;22.65;58.58;95732.56;10325476;28;2053;-53
2022/08/20 13:43:44;;;;;;;;;;;;;;;22.67;58.51;95724.34;10328679;28;2052;-52
2022/08/20 13:48:44;;;;;;;;;;;;;;;22.67;58.49;95719.84;10328577;28;2040;-53
2022/08/20 13:53:45;;;;;;;;;;;;;;;22.65;58.34;95700.84;10328200;28;2208;-52
2022/08/20 13:58:45;;;;;;;;;;;;;;;22.62;58.43;95709.38;10322628;28;2285;-53
2022/08/20 14:03:46;;;;;;;;;;;;;;;22.70;58.16;95704.50;10324449;28;1902;-52
2022/08/20 14:08:46;;;;;;;;;;;;;;;22.73;58.10;95711.84;10326203;28;1953;-50
2022/08/20 14:13:47;;;;;;;;;;;;;;;22.71;57.90;95700.78;10327174;28;2344;-52
2022/08/20 14:18:47;;;;;;;;;;;;;;;22.63;57.48;95694.28;10326213;28;1998;-48
2022/08/20 14:23:48;;;;;;;;;;;;;;;22.53;56.49;95712.91;10327642;28;2056;-52
2022/08/20 14:28:48;;;;;;;;;;;;;;;22.43;56.00;95716.47;10324269;28;2081;-50
2022/08/20 14:33:50;;;;;;;;;;;;;;;22.41;55.88;95729.19;10324559;28;2013;-53
2022/08/20 14:38:50;;;;;;;;;;;;;;;22.35;56.13;95743.53;10326069;28;2005;-53
2022/08/20 14:43:50;;;;;;;;;;;;;;;22.31;56.74;95739.88;10329897;28;2016;-52
2022/08/20 14:48:51;;;;;;;;;;;;;;;22.36;56.97;95731.13;10325927;28;2045;-51
2022/08/20 14:53:51;;;;;;;;;;;;;;;22.47;56.64;95762.38;10324976;28;2073;-50
2022/08/20 14:58:51;;;;;;;;;;;;;;;22.56;56.85;95773.91;10317453;28;2198;-51
2022/08/20 15:03:51;;;;;;;;;;;;;;;22.63;57.48;95792.84;10323060;28;2037;-52
2022/08/20 15:08:52;;;;;;;;;;;;;;;22.65;57.95;95837.47;10322033;28;2143;-52
2022/08/20 15:13:53;;;;;;;;;;;;;;;22.66;58.20;95844.31;10322579;28;2060;-49
2022/08/20 15:18:53;;;;;;;;;;;;;;;22.71;58.04;95814.41;10322951;28;2045;-52
2022/08/20 15:23:54;;;;;;;;;;;;;;;22.75;57.58;95805.59;10320761;28;1898;-54
2022/08/20 15:28:54;;;;;;;;;;;;;;;22.79;56.87;95822.50;10323481;28;2204;-52
2022/08/20 15:33:54;;;;;;;;;;;;;;;22.81;56.80;95816.91;10324762;28;2081;-53
2022/08/20 15:38:55;;;;;;;;;;;;;;;22.84;56.33;95813.69;10323262;28;2148;-53
2022/08/20 15:43:56;;;;;;;;;;;;;;;22.85;56.06;95802.06;10321484;28;1890;-52
2022/08/20 15:48:57;;;;;;;;;;;;;;;22.87;56.10;95797.25;10319146;28;2065;-52
2022/08/20 15:53:58;;;;;;;;;;;;;;;22.87;55.71;95787.50;10322834;28;2018;-52
2022/08/20 15:59:17;;;;;;;;;;;;;;;22.90;55.68;95780.81;10319563;28;2051;-53
2022/08/20 16:04:18;;;;;;;;;;;;;;;22.92;55.49;95794.53;10321551;28;2069;-53
2022/08/20 16:09:40;;;;;;;;;;;;;;;22.92;55.52;95790.03;10318143;28;2046;-54
2022/08/20 16:14:40;;;;;;;;;;;;;;;22.94;55.46;95789.75;10321108;28;2092;-50
2022/08/20 16:20:00;;;;;;;;;;;;;;;22.95;55.30;95780.75;10322945;28;1985;-53
2022/08/20 16:25:00;;;;;;;;;;;;;;;22.97;55.43;95781.25;10321553;28;2093;-53
2022/08/20 16:30:05;;;;;;;;;;;;;;;22.97;55.31;95795.25;10319533;28;2105;-53
2022/08/20 16:35:21;;;;;;;;;;;;;;;22.98;55.28;95788.13;10320985;28;2042;-53
2022/08/20 16:40:30;;;;;;;;;;;;;;;22.99;55.00;95797.63;10322329;28;2009;-53
2022/08/20 16:45:41;;;;;;;;;;;;;;;22.99;55.01;95800.25;10319616;28;2041;-50
2022/08/20 16:50:48;;;;;;;;;;;;;;;23.00;54.94;95801.84;10314191;28;2054;-53
2022/08/20 16:55:48;;;;;;;;;;;;;;;23.01;54.93;95798.09;10315119;28;2064;-54
2022/08/20 17:01:02;;;;;;;;;;;;;;;23.02;54.74;95799.69;10319194;28;2001;-53
2022/08/20 17:06:06;;;;;;;;;;;;;;;23.03;54.80;95809.19;10326829;28;1960;-52
2022/08/20 17:11:07;;;;;;;;;;;;;;;23.04;54.75;95810.75;10325379;28;2268;-54
2022/08/20 17:16:14;;;;;;;;;;;;;;;23.05;54.74;95823.69;10326957;28;2167;-53
2022/08/20 17:21:21;;;;;;;;;;;;;;;23.07;54.65;95826.03;10327101;28;2052;-53
2022/08/20 17:26:33;;;;;;;;;;;;;;;23.07;54.86;95828.69;10327013;28;2128;-53
2022/08/20 17:31:39;;;;;;;;;;;;;;;23.07;54.78;95824.19;10307669;28;2175;-52
2022/08/20 17:36:46;;;;;;;;;;;;;;;23.11;54.99;95819.91;10328250;28;1897;-54
2022/08/20 17:41:48;;;;;;;;;;;;;;;23.14;55.14;95813.25;10327627;28;2060;-54
2022/08/20 17:46:49;;;;;;;;;;;;;;;23.18;55.41;95819.53;10327487;28;2146;-55
2022/08/20 17:51:51;;;;;;;;;;;;;;;23.22;54.89;95823.19;10337103;28;2090;-53
2022/08/20 17:56:52;;;;;;;;;;;;;;;23.23;55.04;95827.38;10326567;28;1898;-55
2022/08/20 18:01:53;;;;;;;;;;;;;;;23.23;54.82;95822.88;10325645;28;2006;-52
2022/08/20 18:06:56;;;;;;;;;;;;;;;23.24;54.53;95827.09;10323182;28;2030;-54
2022/08/20 18:12:08;;;;;;;;;;;;;;;23.25;54.30;95823.38;10340838;28;2231;-54
2022/08/20 18:17:14;;;;;;;;;;;;;;;23.27;54.12;95823.09;10327248;28;1990;-52
2022/08/20 18:22:15;;;;;;;;;;;;;;;23.29;53.96;95820.94;10327908;28;1888;-53
2022/08/20 18:27:16;;;;;;;;;;;;;;;23.29;54.20;95827.00;10324663;28;1994;-54
2022/08/20 18:32:22;;;;;;;;;;;;;;;23.30;54.35;95828.59;10341226;28;2165;-53
2022/08/20 18:37:25;;;;;;;;;;;;;;;23.30;54.16;95825.94;10326078;28;2010;-54
2022/08/20 18:42:30;;;;;;;;;;;;;;;23.32;54.29;95825.69;10325471;28;2187;-54
2022/08/20 18:47:33;;;;;;;;;;;;;;;23.32;54.26;95830.97;10324566;28;1984;-54
2022/08/20 18:52:34;;;;;;;;;;;;;;;23.32;54.43;95830.97;10321768;28;2033;-54
2022/08/20 18:57:38;;;;;;;;;;;;;;;23.33;54.57;95832.53;10323904;28;2082;-49
2022/08/20 19:02:59;;;;;;;;;;;;;;;23.32;54.93;95844.19;10340756;28;2135;-52
2022/08/20 19:08:00;;;;;;;;;;;;;;;23.31;55.43;95840.72;10300628;28;2068;-52
2022/08/20 19:13:10;;;;;;;;;;;;;;;23.29;55.46;95847.38;10323556;28;2021;-53
2022/08/20 19:18:14;;;;;;;;;;;;;;;23.28;54.97;95846.63;10323798;28;2060;-51
2022/08/20 19:23:18;;;;;;;;;;;;;;;23.28;54.79;95846.63;10323212;28;2125;-51
2022/08/20 19:28:28;;;;;;;;;;;;;;;23.28;55.01;95845.81;10322753;28;2038;-53
2022/08/20 19:33:29;;;;;;;;;;;;;;;23.28;55.22;95843.19;10323072;28;2077;-53
2022/08/20 19:38:30;;;;;;;;;;;;;;;23.28;55.28;95845.81;10322833;28;2051;-53
2022/08/20 19:43:30;;;;;;;;;;;;;;;23.28;55.27;95837.88;10324184;28;2029;-54
2022/08/20 19:48:40;;;;;;;;;;;;;;;23.27;55.13;95839.75;10302995;28;2025;-54
2022/08/20 19:53:44;;;;;;;;;;;;;;;23.27;55.19;95831.00;10321755;28;2223;-53
2022/08/20 19:58:45;;;;;;;;;;;;;;;23.27;55.20;95828.38;10321092;28;2072;-54
2022/08/20 20:04:12;;;;;;;;;;;;;;;23.27;55.12;95825.72;10321647;28;2000;-50
2022/08/20 20:09:21;;;;;;;;;;;;;;;23.27;55.19;95823.09;10320815;28;2161;-52
2022/08/20 20:14:26;;;;;;;;;;;;;;;23.26;54.87;95827.59;10342592;28;2127;-50
2022/08/20 20:19:27;;;;;;;;;;;;;;;23.27;55.07;95823.88;10322220;28;2037;-54
2022/08/20 20:24:28;;;;;;;;;;;;;;;23.26;55.36;95813.59;10320346;28;2049;-53
2022/08/20 20:29:35;;;;;;;;;;;;;;;23.27;55.12;95812.50;10321274;28;1838;-53
2022/08/20 20:34:36;;;;;;;;;;;;;;;23.26;54.83;95816.22;10321150;28;2380;-56
2022/08/20 20:39:40;;;;;;;;;;;;;;;23.26;54.91;95816.22;10330790;28;1880;-53
2022/08/20 20:44:42;;;;;;;;;;;;;;;23.27;54.95;95817.78;10330323;28;2421;-53
2022/08/20 20:49:49;;;;;;;;;;;;;;;23.26;54.66;95817.03;10326859;28;2327;-52
2022/08/20 20:54:50;;;;;;;;;;;;;;;23.27;54.79;95809.84;10328033;28;2327;-49
2022/08/20 20:59:51;;;;;;;;;;;;;;;23.27;54.62;95813.28;10327454;28;2332;-55
2022/08/20 21:04:52;;;;;;;;;;;;;;;23.27;54.77;95809.84;10327153;28;2316;-54
2022/08/20 21:09:53;;;;;;;;;;;;;;;23.26;54.91;95806.44;10326391;28;2372;-51
2022/08/20 21:14:53;;;;;;;;;;;;;;;23.26;54.66;95803.00;10327264;28;2387;-53
2022/08/20 21:19:54;;;;;;;;;;;;;;;23.27;54.76;95805.34;10328719;28;2036;-53
2022/08/20 21:24:54;;;;;;;;;;;;;;;23.26;54.36;95810.94;10328561;28;2253;-51
2022/08/20 21:29:54;;;;;;;;;;;;;;;23.26;54.63;95816.22;10325955;28;2358;-54
2022/08/20 21:34:55;;;;;;;;;;;;;;;23.27;54.69;95809.84;10326214;28;2378;-49
2022/08/20 21:39:55;;;;;;;;;;;;;;;23.26;54.79;95814.38;10328638;28;2315;-51
2022/08/20 21:44:56;;;;;;;;;;;;;;;23.27;54.65;95815.16;10329925;28;2333;-52
2022/08/20 21:49:56;;;;;;;;;;;;;;;23.26;54.33;95818.88;10329293;28;2256;-53
2022/08/20 21:54:56;;;;;;;;;;;;;;;23.27;54.61;95815.16;10330024;28;2470;-51
2022/08/20 21:59:56;;;;;;;;;;;;;;;23.27;54.23;95815.16;10327959;28;2308;-52
2022/08/20 22:04:57;;;;;;;;;;;;;;;23.27;54.30;95809.84;10326225;28;2296;-54
2022/08/20 22:09:58;;;;;;;;;;;;;;;23.26;54.35;95813.59;10327552;28;2265;-53
2022/08/20 22:14:58;;;;;;;;;;;;;;;23.27;54.20;95812.50;10325657;28;2404;-53
2022/08/20 22:19:58;;;;;;;;;;;;;;;23.27;54.13;95809.84;10328021;28;2324;-53
2022/08/20 22:24:59;;;;;;;;;;;;;;;23.27;54.08;95804.56;10326925;28;2293;-54
2022/08/20 22:29:59;;;;;;;;;;;;;;;23.27;54.23;95805.34;10326616;28;2370;-53
2022/08/20 22:34:59;;;;;;;;;;;;;;;23.27;54.20;95796.63;10325397;28;2332;-52
2022/08/20 22:39:59;;;;;;;;;;;;;;;23.27;54.11;95801.91;10324709;28;2339;-50
2022/08/20 22:45:00;;;;;;;;;;;;;;;23.28;53.99;95800.88;10326281;28;2225;-53
2022/08/20 22:50:00;;;;;;;;;;;;;;;23.27;54.34;95800.06;10326240;28;1937;-53
2022/08/20 22:55:00;;;;;;;;;;;;;;;23.27;54.06;95796.63;10324778;28;2676;-49
2022/08/20 23:00:00;;;;;;;;;;;;;;;23.27;54.26;95796.63;10324980;28;2420;-54
2022/08/20 23:05:01;;;;;;;;;;;;;;;23.27;53.88;95794.78;10324321;28;2353;-50
2022/08/20 23:10:01;;;;;;;;;;;;;;;23.27;54.12;95796.63;10325311;28;2324;-52
2022/08/20 23:15:02;;;;;;;;;;;;;;;23.26;54.07;95798.50;10319725;28;2347;-54
2022/08/20 23:20:06;;;;;;;;;;;;;;;23.27;53.81;95791.34;10323592;28;1889;-53
2022/08/20 23:25:07;;;;;;;;;;;;;;;23.26;53.80;95785.28;10320890;28;2339;-51
2022/08/20 23:30:07;;;;;;;;;;;;;;;23.26;53.95;95780.00;10322251;28;1964;-52
2022/08/20 23:35:08;;;;;;;;;;;;;;;23.27;53.93;95773.63;10323338;28;2383;-52
2022/08/20 23:40:09;;;;;;;;;;;;;;;23.26;53.56;95780.00;10321870;28;2309;-53
2022/08/20 23:45:13;;;;;;;;;;;;;;;23.27;54.01;95775.47;10322443;28;2319;-53
2022/08/20 23:50:14;;;;;;;;;;;;;;;23.27;53.81;95778.13;10322786;28;2312;-52
2022/08/20 23:55:15;;;;;;;;;;;;;;;23.26;53.99;95772.06;10318689;28;2648;-52
